sensor_id;sensor_type;location;lat;lon;timestamp;pressure;altitude;pressure_sealevel;temperature;humidity
58070;BME280;43863;52.256;21.048;2022-10-16T00:01:28;100645.41;;;17.19;59.18
58070;BME280;43863;52.256;21.048;2022-10-16T00:03:59;100643.91;;;17.23;59.22
58070;BME280;43863;52.256;21.048;2022-10-16T00:06:30;100649.72;;;17.20;59.37
58070;BME280;43863;52.256;21.048;2022-10-16T00:08:58;100647.03;;;17.20;58.96
58070;BME280;43863;52.256;21.048;2022-10-16T00:11:29;100650.53;;;17.21;59.09
58070;BME280;43863;52.256;21.048;2022-10-16T00:13:59;100647.84;;;17.21;59.18
58070;BME280;43863;52.256;21.048;2022-10-16T00:16:28;100646.22;;;17.20;59.38
58070;BME280;43863;52.256;21.048;2022-10-16T00:18:56;100650.09;;;17.24;59.41
58070;BME280;43863;52.256;21.048;2022-10-16T00:21:28;100648.03;;;17.26;59.13
58070;BME280;43863;52.256;21.048;2022-10-16T00:24:15;100640.41;;;17.23;59.14
58070;BME280;43863;52.256;21.048;2022-10-16T00:26:44;100644.75;;;17.24;59.21
58070;BME280;43863;52.256;21.048;2022-10-16T00:29:12;100640.81;;;17.26;59.27
58070;BME280;43863;52.256;21.048;2022-10-16T00:31:40;100648.09;;;17.19;58.99
58070;BME280;43863;52.256;21.048;2022-10-16T00:34:08;100648.50;;;17.16;58.93
58070;BME280;43863;52.256;21.048;2022-10-16T00:36:36;100654.47;;;17.18;59.20
58070;BME280;43863;52.256;21.048;2022-10-16T00:39:04;100653.84;;;17.23;58.89
58070;BME280;43863;52.256;21.048;2022-10-16T00:41:33;100654.47;;;17.25;58.88
58070;BME280;43863;52.256;21.048;2022-10-16T00:44:47;100660.47;;;17.20;59.09
58070;BME280;43863;52.256;21.048;2022-10-16T00:46:54;100658.22;;;17.11;59.23
58070;BME280;43863;52.256;21.048;2022-10-16T00:49:22;100668.97;;;17.11;59.39
58070;BME280;43863;52.256;21.048;2022-10-16T00:51:52;100675.78;;;17.06;60.05
58070;BME280;43863;52.256;21.048;2022-10-16T00:54:29;100668.16;;;17.03;60.71
58070;BME280;43863;52.256;21.048;2022-10-16T00:57:04;100661.56;;;16.99;60.75
58070;BME280;43863;52.256;21.048;2022-10-16T00:59:36;100668.41;;;16.95;60.72
58070;BME280;43863;52.256;21.048;2022-10-16T01:02:06;100659.53;;;16.95;61.20
58070;BME280;43863;52.256;21.048;2022-10-16T01:04:39;100673.13;;;16.93;61.34
58070;BME280;43863;52.256;21.048;2022-10-16T01:12:42;100682.03;;;16.87;61.25
58070;BME280;43863;52.256;21.048;2022-10-16T01:18:23;100683.91;;;16.87;61.28
58070;BME280;43863;52.256;21.048;2022-10-16T01:21:00;100683.06;;;16.86;61.48
58070;BME280;43863;52.256;21.048;2022-10-16T01:29:23;100678.50;;;16.93;61.23
58070;BME280;43863;52.256;21.048;2022-10-16T01:31:57;100687.59;;;16.99;61.55
58070;BME280;43863;52.256;21.048;2022-10-16T01:34:40;100689.19;;;17.06;61.10
58070;BME280;43863;52.256;21.048;2022-10-16T01:37:15;100683.22;;;17.11;61.35
58070;BME280;43863;52.256;21.048;2022-10-16T01:39:47;100697.25;;;17.13;60.94
58070;BME280;43863;52.256;21.048;2022-10-16T01:42:24;100696.81;;;17.16;61.06
58070;BME280;43863;52.256;21.048;2022-10-16T01:44:57;100694.13;;;17.16;60.74
58070;BME280;43863;52.256;21.048;2022-10-16T01:47:27;100701.81;;;17.13;60.71
58070;BME280;43863;52.256;21.048;2022-10-16T01:49:58;100699.94;;;17.13;60.53
58070;BME280;43863;52.256;21.048;2022-10-16T01:52:28;100707.75;;;17.15;60.65
58070;BME280;43863;52.256;21.048;2022-10-16T01:54:58;100710.44;;;17.15;60.77
58070;BME280;43863;52.256;21.048;2022-10-16T01:57:28;100693.75;;;17.13;60.78
58070;BME280;43863;52.256;21.048;2022-10-16T02:00:01;100698.06;;;17.14;61.61
58070;BME280;43863;52.256;21.048;2022-10-16T02:02:40;100686.13;;;17.10;61.88
58070;BME280;43863;52.256;21.048;2022-10-16T02:05:16;100689.22;;;17.00;62.00
58070;BME280;43863;52.256;21.048;2022-10-16T02:07:48;100690.09;;;16.87;62.76
58070;BME280;43863;52.256;21.048;2022-10-16T02:10:41;100688.88;;;16.83;62.90
58070;BME280;43863;52.256;21.048;2022-10-16T02:13:15;100687.19;;;16.82;62.80
58070;BME280;43863;52.256;21.048;2022-10-16T02:15:44;100689.88;;;16.82;62.73
58070;BME280;43863;52.256;21.048;2022-10-16T02:18:12;100686.19;;;16.83;62.82
58070;BME280;43863;52.256;21.048;2022-10-16T02:21:02;100688.22;;;16.88;62.74
58070;BME280;43863;52.256;21.048;2022-10-16T02:23:51;100683.50;;;16.83;63.10
58070;BME280;43863;52.256;21.048;2022-10-16T02:26:31;100690.91;;;16.81;62.86
58070;BME280;43863;52.256;21.048;2022-10-16T02:29:08;100682.22;;;16.72;63.20
58070;BME280;43863;52.256;21.048;2022-10-16T02:31:41;100684.69;;;16.74;63.11
58070;BME280;43863;52.256;21.048;2022-10-16T02:34:12;100689.03;;;16.75;63.25
58070;BME280;43863;52.256;21.048;2022-10-16T02:36:41;100686.78;;;16.72;63.40
58070;BME280;43863;52.256;21.048;2022-10-16T02:39:10;100685.97;;;16.71;63.27
58070;BME280;43863;52.256;21.048;2022-10-16T02:41:39;100690.28;;;16.72;63.34
58070;BME280;43863;52.256;21.048;2022-10-16T02:44:07;100687.59;;;16.72;63.33
58070;BME280;43863;52.256;21.048;2022-10-16T02:46:35;100695.25;;;16.69;63.42
58070;BME280;43863;52.256;21.048;2022-10-16T02:49:03;100695.44;;;16.67;63.65
58070;BME280;43863;52.256;21.048;2022-10-16T02:51:30;100698.75;;;16.69;63.79
58070;BME280;43863;52.256;21.048;2022-10-16T02:53:59;100686.97;;;16.70;63.70
58070;BME280;43863;52.256;21.048;2022-10-16T02:56:27;100697.09;;;16.68;63.82
58070;BME280;43863;52.256;21.048;2022-10-16T02:58:55;100694.63;;;16.67;63.71
58070;BME280;43863;52.256;21.048;2022-10-16T03:01:25;100700.19;;;16.65;63.67
58070;BME280;43863;52.256;21.048;2022-10-16T03:03:53;100701.63;;;16.61;63.76
58070;BME280;43863;52.256;21.048;2022-10-16T03:09:39;100702.66;;;16.47;63.89
58070;BME280;43863;52.256;21.048;2022-10-16T03:12:07;100711.13;;;16.44;64.14
58070;BME280;43863;52.256;21.048;2022-10-16T03:14:35;100713.19;;;16.48;64.41
58070;BME280;43863;52.256;21.048;2022-10-16T03:17:03;100719.38;;;16.49;64.39
58070;BME280;43863;52.256;21.048;2022-10-16T03:19:31;100718.56;;;16.48;64.26
58070;BME280;43863;52.256;21.048;2022-10-16T03:21:59;100716.91;;;16.47;64.44
58070;BME280;43863;52.256;21.048;2022-10-16T03:24:27;100726.81;;;16.47;64.42
58070;BME280;43863;52.256;21.048;2022-10-16T03:26:54;100729.47;;;16.47;64.35
58070;BME280;43863;52.256;21.048;2022-10-16T03:29:23;100735.25;;;16.50;64.53
58070;BME280;43863;52.256;21.048;2022-10-16T03:31:53;100730.53;;;16.46;64.47
58070;BME280;43863;52.256;21.048;2022-10-16T03:34:21;100727.22;;;16.44;64.37
58070;BME280;43863;52.256;21.048;2022-10-16T03:36:49;100726.41;;;16.36;64.69
58070;BME280;43863;52.256;21.048;2022-10-16T03:39:17;100726.19;;;16.38;64.70
58070;BME280;43863;52.256;21.048;2022-10-16T03:41:45;100728.03;;;16.37;64.70
58070;BME280;43863;52.256;21.048;2022-10-16T03:44:14;100732.16;;;16.40;64.47
58070;BME280;43863;52.256;21.048;2022-10-16T03:46:42;100735.66;;;16.41;64.60
58070;BME280;43863;52.256;21.048;2022-10-16T03:49:10;100733.81;;;16.41;64.69
58070;BME280;43863;52.256;21.048;2022-10-16T03:51:38;100724.94;;;16.41;64.67
58070;BME280;43863;52.256;21.048;2022-10-16T03:54:05;100730.94;;;16.36;64.59
58070;BME280;43863;52.256;21.048;2022-10-16T03:56:33;100731.13;;;16.34;64.88
58070;BME280;43863;52.256;21.048;2022-10-16T03:59:01;100736.50;;;16.34;64.72
58070;BME280;43863;52.256;21.048;2022-10-16T04:01:29;100748.25;;;16.33;64.55
58070;BME280;43863;52.256;21.048;2022-10-16T04:03:57;100739.41;;;16.33;64.28
58070;BME280;43863;52.256;21.048;2022-10-16T04:06:24;100741.63;;;16.29;64.74
58070;BME280;43863;52.256;21.048;2022-10-16T04:08:52;100741.22;;;16.26;64.42
58070;BME280;43863;52.256;21.048;2022-10-16T04:11:20;100742.69;;;16.22;64.17
58070;BME280;43863;52.256;21.048;2022-10-16T04:13:48;100741.00;;;16.14;64.57
58070;BME280;43863;52.256;21.048;2022-10-16T04:16:15;100729.22;;;16.08;64.62
58070;BME280;43863;52.256;21.048;2022-10-16T04:18:43;100738.31;;;16.01;64.71
58070;BME280;43863;52.256;21.048;2022-10-16T04:21:11;100736.84;;;15.98;65.06
58070;BME280;43863;52.256;21.048;2022-10-16T04:23:39;100741.38;;;15.98;65.02
58070;BME280;43863;52.256;21.048;2022-10-16T04:26:06;100737.84;;;15.97;64.89
58070;BME280;43863;52.256;21.048;2022-10-16T04:28:34;100745.69;;;15.92;65.20
58070;BME280;43863;52.256;21.048;2022-10-16T04:31:04;100742.38;;;15.90;65.14
58070;BME280;43863;52.256;21.048;2022-10-16T04:33:35;100739.28;;;15.86;65.23
58070;BME280;43863;52.256;21.048;2022-10-16T04:36:04;100747.72;;;15.83;65.29
58070;BME280;43863;52.256;21.048;2022-10-16T04:38:33;100752.44;;;15.81;65.61
58070;BME280;43863;52.256;21.048;2022-10-16T04:41:01;100750.81;;;15.80;65.58
58070;BME280;43863;52.256;21.048;2022-10-16T04:43:33;100745.84;;;15.77;65.69
58070;BME280;43863;52.256;21.048;2022-10-16T04:46:01;100757.56;;;15.76;65.65
58070;BME280;43863;52.256;21.048;2022-10-16T04:48:29;100755.75;;;15.77;65.66
58070;BME280;43863;52.256;21.048;2022-10-16T04:50:57;100759.44;;;15.76;65.74
58070;BME280;43863;52.256;21.048;2022-10-16T04:53:25;100753.47;;;15.74;65.61
58070;BME280;43863;52.256;21.048;2022-10-16T04:55:53;100760.88;;;15.78;65.46
58070;BME280;43863;52.256;21.048;2022-10-16T04:58:22;100761.50;;;15.74;65.57
58070;BME280;43863;52.256;21.048;2022-10-16T05:00:50;100766.00;;;15.73;65.73
58070;BME280;43863;52.256;21.048;2022-10-16T05:03:18;100762.13;;;15.76;65.80
58070;BME280;43863;52.256;21.048;2022-10-16T05:05:47;100756.97;;;15.74;65.81
58070;BME280;43863;52.256;21.048;2022-10-16T05:08:16;100770.38;;;15.74;65.50
58070;BME280;43863;52.256;21.048;2022-10-16T05:10:45;100778.81;;;15.71;65.65
58070;BME280;43863;52.256;21.048;2022-10-16T05:13:13;100776.13;;;15.71;65.54
58070;BME280;43863;52.256;21.048;2022-10-16T05:15:41;100787.03;;;15.69;65.67
58070;BME280;43863;52.256;21.048;2022-10-16T05:18:09;100783.34;;;15.71;65.59
58070;BME280;43863;52.256;21.048;2022-10-16T05:20:37;100791.56;;;15.69;65.51
58070;BME280;43863;52.256;21.048;2022-10-16T05:23:04;100799.19;;;15.72;65.53
58070;BME280;43863;52.256;21.048;2022-10-16T05:25:32;100795.06;;;15.76;65.44
58070;BME280;43863;52.256;21.048;2022-10-16T05:28:00;100789.97;;;15.81;65.33
58070;BME280;43863;52.256;21.048;2022-10-16T05:30:28;100790.38;;;15.85;65.21
58070;BME280;43863;52.256;21.048;2022-10-16T05:32:56;100795.16;;;15.89;65.09
58070;BME280;43863;52.256;21.048;2022-10-16T05:35:23;100796.59;;;15.92;64.98
58070;BME280;43863;52.256;21.048;2022-10-16T05:37:52;100808.13;;;15.92;64.90
58070;BME280;43863;52.256;21.048;2022-10-16T05:40:20;100796.59;;;15.92;64.90
58070;BME280;43863;52.256;21.048;2022-10-16T05:42:48;100787.34;;;15.95;64.54
58070;BME280;43863;52.256;21.048;2022-10-16T05:45:16;100793.69;;;15.87;64.73
58070;BME280;43863;52.256;21.048;2022-10-16T05:47:43;100794.50;;;15.87;64.60
58070;BME280;43863;52.256;21.048;2022-10-16T05:50:11;100795.97;;;15.90;64.67
58070;BME280;43863;52.256;21.048;2022-10-16T05:52:39;100797.63;;;15.91;64.73
58070;BME280;43863;52.256;21.048;2022-10-16T05:55:07;100801.75;;;15.93;64.47
58070;BME280;43863;52.256;21.048;2022-10-16T05:57:35;100802.38;;;15.96;64.46
58070;BME280;43863;52.256;21.048;2022-10-16T06:00:03;100798.00;;;15.88;64.59
58070;BME280;43863;52.256;21.048;2022-10-16T06:02:38;100808.06;;;15.79;64.53
58070;BME280;43863;52.256;21.048;2022-10-16T06:05:06;100825.78;;;15.74;64.86
58070;BME280;43863;52.256;21.048;2022-10-16T06:07:35;100819.63;;;15.80;64.75
58070;BME280;43863;52.256;21.048;2022-10-16T06:10:04;100826.47;;;15.89;64.75
58070;BME280;43863;52.256;21.048;2022-10-16T06:12:32;100827.72;;;15.93;64.63
58070;BME280;43863;52.256;21.048;2022-10-16T06:15:00;100833.16;;;16.06;64.10
58070;BME280;43863;52.256;21.048;2022-10-16T06:17:27;100833.16;;;16.13;63.99
58070;BME280;43863;52.256;21.048;2022-10-16T06:19:56;100830.09;;;16.23;63.82
58070;BME280;43863;52.256;21.048;2022-10-16T06:22:23;100837.53;;;16.27;63.79
58070;BME280;43863;52.256;21.048;2022-10-16T06:24:51;100834.63;;;16.29;63.36
58070;BME280;43863;52.256;21.048;2022-10-16T06:27:19;100832.81;;;16.36;63.49
58070;BME280;43863;52.256;21.048;2022-10-16T06:29:47;100826.66;;;16.42;62.90
58070;BME280;43863;52.256;21.048;2022-10-16T06:32:14;100833.66;;;16.43;63.22
58070;BME280;43863;52.256;21.048;2022-10-16T06:34:45;100835.53;;;16.56;62.75
58070;BME280;43863;52.256;21.048;2022-10-16T06:37:13;100837.19;;;16.64;62.61
58070;BME280;43863;52.256;21.048;2022-10-16T06:39:41;100841.09;;;16.68;62.46
58070;BME280;43863;52.256;21.048;2022-10-16T06:42:09;100846.13;;;16.77;62.13
58070;BME280;43863;52.256;21.048;2022-10-16T06:44:36;100849.84;;;16.90;62.05
58070;BME280;43863;52.256;21.048;2022-10-16T06:47:04;100856.25;;;17.02;61.43
58070;BME280;43863;52.256;21.048;2022-10-16T06:49:32;100847.16;;;17.10;61.30
58070;BME280;43863;52.256;21.048;2022-10-16T06:52:00;100848.59;;;17.19;61.10
58070;BME280;43863;52.256;21.048;2022-10-16T06:54:29;100853.97;;;17.25;60.77
58070;BME280;43863;52.256;21.048;2022-10-16T06:57:06;100859.31;;;17.32;60.53
58070;BME280;43863;52.256;21.048;2022-10-16T06:59:33;100858.06;;;17.41;60.35
58070;BME280;43863;52.256;21.048;2022-10-16T07:02:01;100848.38;;;17.40;60.16
58070;BME280;43863;52.256;21.048;2022-10-16T07:04:29;100865.28;;;17.47;60.25
58070;BME280;43863;52.256;21.048;2022-10-16T07:06:57;100855.97;;;17.63;59.78
58070;BME280;43863;52.256;21.048;2022-10-16T07:09:30;100869.19;;;17.78;59.59
58070;BME280;43863;52.256;21.048;2022-10-16T07:11:59;100868.75;;;17.88;59.44
58070;BME280;43863;52.256;21.048;2022-10-16T07:14:27;100873.88;;;17.89;59.05
58070;BME280;43863;52.256;21.048;2022-10-16T07:16:55;100878.66;;;17.87;59.00
58070;BME280;43863;52.256;21.048;2022-10-16T07:19:23;100883.41;;;17.85;59.08
58070;BME280;43863;52.256;21.048;2022-10-16T07:21:51;100884.88;;;17.81;59.11
58070;BME280;43863;52.256;21.048;2022-10-16T07:24:18;100893.97;;;17.80;58.77
58070;BME280;43863;52.256;21.048;2022-10-16T07:26:46;100890.69;;;17.78;59.07
58070;BME280;43863;52.256;21.048;2022-10-16T07:29:19;100880.97;;;17.84;58.78
58070;BME280;43863;52.256;21.048;2022-10-16T07:31:48;100877.00;;;17.86;58.95
58070;BME280;43863;52.256;21.048;2022-10-16T07:34:18;100875.75;;;17.95;58.63
58070;BME280;43863;52.256;21.048;2022-10-16T07:36:50;100870.13;;;18.10;58.27
58070;BME280;43863;52.256;21.048;2022-10-16T07:39:18;100872.34;;;18.20;58.00
58070;BME280;43863;52.256;21.048;2022-10-16T07:41:46;100865.72;;;18.23;57.91
58070;BME280;43863;52.256;21.048;2022-10-16T07:44:15;100865.44;;;18.31;57.80
58070;BME280;43863;52.256;21.048;2022-10-16T07:46:43;100859.66;;;18.27;57.68
58070;BME280;43863;52.256;21.048;2022-10-16T07:49:11;100858.56;;;18.41;57.92
58070;BME280;43863;52.256;21.048;2022-10-16T07:51:38;100857.78;;;18.66;57.65
58070;BME280;43863;52.256;21.048;2022-10-16T07:54:08;100852.84;;;18.95;57.15
58070;BME280;43863;52.256;21.048;2022-10-16T07:56:36;100861.78;;;19.14;56.54
58070;BME280;43863;52.256;21.048;2022-10-16T07:59:10;100857.03;;;19.16;56.31
58070;BME280;43863;52.256;21.048;2022-10-16T08:01:38;100868.25;;;19.13;56.10
58070;BME280;43863;52.256;21.048;2022-10-16T08:04:06;100867.63;;;19.10;56.27
58070;BME280;43863;52.256;21.048;2022-10-16T08:06:37;100865.22;;;19.27;56.24
58070;BME280;43863;52.256;21.048;2022-10-16T08:09:06;100872.13;;;19.42;56.00
58070;BME280;43863;52.256;21.048;2022-10-16T08:11:35;100873.66;;;19.31;55.94
58070;BME280;43863;52.256;21.048;2022-10-16T08:14:02;100889.00;;;19.30;55.65
58070;BME280;43863;52.256;21.048;2022-10-16T08:16:30;100892.19;;;19.46;55.89
58070;BME280;43863;52.256;21.048;2022-10-16T08:18:58;100880.84;;;19.62;55.66
58070;BME280;43863;52.256;21.048;2022-10-16T08:21:26;100881.66;;;19.63;55.25
58070;BME280;43863;52.256;21.048;2022-10-16T08:23:54;100881.66;;;19.63;55.13
58070;BME280;43863;52.256;21.048;2022-10-16T08:26:26;100888.69;;;19.64;55.25
58070;BME280;43863;52.256;21.048;2022-10-16T08:28:55;100892.69;;;19.61;55.09
58070;BME280;43863;52.256;21.048;2022-10-16T08:31:23;100895.38;;;19.61;55.31
58070;BME280;43863;52.256;21.048;2022-10-16T08:33:52;100892.06;;;19.59;55.19
58070;BME280;43863;52.256;21.048;2022-10-16T08:36:20;100895.94;;;19.63;55.38
58070;BME280;43863;52.256;21.048;2022-10-16T08:38:51;100894.88;;;19.71;55.23
58070;BME280;43863;52.256;21.048;2022-10-16T08:49:36;100910.31;;;20.00;54.75
58070;BME280;43863;52.256;21.048;2022-10-16T08:52:12;100908.00;;;20.04;54.67
58070;BME280;43863;52.256;21.048;2022-10-16T08:54:50;100905.19;;;20.11;54.43
58070;BME280;43863;52.256;21.048;2022-10-16T08:57:23;100902.00;;;20.20;54.49
58070;BME280;43863;52.256;21.048;2022-10-16T08:59:53;100914.38;;;20.40;54.34
58070;BME280;43863;52.256;21.048;2022-10-16T09:02:34;100918.94;;;20.58;53.93
58070;BME280;43863;52.256;21.048;2022-10-16T09:10:59;100918.28;;;20.62;53.40
58070;BME280;43863;52.256;21.048;2022-10-16T09:13:31;100920.53;;;20.65;53.74
58070;BME280;43863;52.256;21.048;2022-10-16T09:18:45;100914.13;;;20.90;53.44
58070;BME280;43863;52.256;21.048;2022-10-16T09:23:51;100902.66;;;21.06;53.32
58070;BME280;43863;52.256;21.048;2022-10-16T09:26:19;64218.63;;;-143.58;100.00
58070;BME280;43863;52.256;21.048;2022-10-16T09:28:52;64218.63;;;-143.58;100.00
58070;BME280;43863;52.256;21.048;2022-10-16T09:31:22;64218.63;;;-143.58;100.00
58070;BME280;43863;52.256;21.048;2022-10-16T09:34:00;64218.63;;;-143.58;100.00
58070;BME280;43863;52.256;21.048;2022-10-16T09:36:40;64218.63;;;-143.58;100.00
58070;BME280;43863;52.256;21.048;2022-10-16T09:39:10;64218.63;;;-143.58;100.00
58070;BME280;43863;52.256;21.048;2022-10-16T09:41:43;64218.63;;;-143.58;100.00
58070;BME280;43863;52.256;21.048;2022-10-16T09:44:23;64218.63;;;-143.58;100.00
58070;BME280;43863;52.256;21.048;2022-10-16T09:47:20;64218.63;;;-143.58;100.00
58070;BME280;43863;52.256;21.048;2022-10-16T09:52:23;64218.63;;;-143.58;100.00
58070;BME280;43863;52.256;21.048;2022-10-16T09:54:56;64218.63;;;-143.58;100.00
58070;BME280;43863;52.256;21.048;2022-10-16T09:57:24;64218.63;;;-143.58;100.00
58070;BME280;43863;52.256;21.048;2022-10-16T09:59:54;64218.63;;;-143.58;100.00
58070;BME280;43863;52.256;21.048;2022-10-16T10:02:29;64218.63;;;-143.58;100.00
58070;BME280;43863;52.256;21.048;2022-10-16T10:04:58;64218.63;;;-143.58;100.00
58070;BME280;43863;52.256;21.048;2022-10-16T10:07:56;64218.63;;;-143.58;100.00
58070;BME280;43863;52.256;21.048;2022-10-16T10:10:42;64218.63;;;-143.58;100.00
58070;BME280;43863;52.256;21.048;2022-10-16T10:13:21;64218.63;;;-143.58;100.00
58070;BME280;43863;52.256;21.048;2022-10-16T10:15:51;64218.63;;;-143.58;100.00
58070;BME280;43863;52.256;21.048;2022-10-16T10:18:20;64218.63;;;-143.58;100.00
58070;BME280;43863;52.256;21.048;2022-10-16T10:21:00;64218.63;;;-143.58;100.00
58070;BME280;43863;52.256;21.048;2022-10-16T10:23:29;64218.63;;;-143.58;100.00
58070;BME280;43863;52.256;21.048;2022-10-16T10:34:40;64218.63;;;-143.58;100.00
58070;BME280;43863;52.256;21.048;2022-10-16T10:40:07;64218.63;;;-143.58;100.00
58070;BME280;43863;52.256;21.048;2022-10-16T10:42:47;64218.63;;;-143.58;100.00
58070;BME280;43863;52.256;21.048;2022-10-16T10:48:16;64218.63;;;-143.58;100.00
58070;BME280;43863;52.256;21.048;2022-10-16T10:50:57;64218.63;;;-143.58;100.00
58070;BME280;43863;52.256;21.048;2022-10-16T10:53:35;64218.63;;;-143.58;100.00
58070;BME280;43863;52.256;21.048;2022-10-16T10:56:24;64218.63;;;-143.58;100.00
58070;BME280;43863;52.256;21.048;2022-10-16T11:09:45;64218.63;;;-143.58;100.00
58070;BME280;43863;52.256;21.048;2022-10-16T11:12:29;64218.63;;;-143.58;100.00
58070;BME280;43863;52.256;21.048;2022-10-16T11:20:56;64218.63;;;-143.58;100.00
58070;BME280;43863;52.256;21.048;2022-10-16T11:26:26;64218.63;;;-143.58;100.00
58070;BME280;43863;52.256;21.048;2022-10-16T11:28:56;64218.63;;;-143.58;100.00
58070;BME280;43863;52.256;21.048;2022-10-16T11:31:34;64218.63;;;-143.58;100.00
58070;BME280;43863;52.256;21.048;2022-10-16T11:34:13;64218.63;;;-143.58;100.00
58070;BME280;43863;52.256;21.048;2022-10-16T11:39:38;64218.63;;;-143.58;100.00
58070;BME280;43863;52.256;21.048;2022-10-16T11:42:11;64218.63;;;-143.58;100.00
58070;BME280;43863;52.256;21.048;2022-10-16T11:45:03;64218.63;;;-143.58;100.00
58070;BME280;43863;52.256;21.048;2022-10-16T11:47:45;64218.63;;;-143.58;100.00
58070;BME280;43863;52.256;21.048;2022-10-16T11:50:45;64218.63;;;-143.58;100.00
58070;BME280;43863;52.256;21.048;2022-10-16T11:56:06;64218.63;;;-143.58;100.00
58070;BME280;43863;52.256;21.048;2022-10-16T12:04:33;64218.63;;;-143.58;100.00
58070;BME280;43863;52.256;21.048;2022-10-16T12:07:16;64218.63;;;-143.58;100.00
58070;BME280;43863;52.256;21.048;2022-10-16T12:09:46;64218.63;;;-143.58;100.00
58070;BME280;43863;52.256;21.048;2022-10-16T12:12:37;64218.63;;;-143.58;100.00
58070;BME280;43863;52.256;21.048;2022-10-16T12:18:42;64218.63;;;-143.58;100.00
58070;BME280;43863;52.256;21.048;2022-10-16T12:21:12;64218.63;;;-143.58;100.00
58070;BME280;43863;52.256;21.048;2022-10-16T12:23:49;64218.63;;;-143.58;100.00
58070;BME280;43863;52.256;21.048;2022-10-16T12:26:37;64218.63;;;-143.58;100.00
58070;BME280;43863;52.256;21.048;2022-10-16T12:32:03;64218.63;;;-143.58;100.00
58070;BME280;43863;52.256;21.048;2022-10-16T12:34:46;64218.63;;;-143.58;100.00
58070;BME280;43863;52.256;21.048;2022-10-16T12:37:33;64218.63;;;-143.58;100.00
58070;BME280;43863;52.256;21.048;2022-10-16T12:40:25;64218.63;;;-143.58;100.00
58070;BME280;43863;52.256;21.048;2022-10-16T12:42:54;64218.63;;;-143.58;100.00
58070;BME280;43863;52.256;21.048;2022-10-16T12:45:32;64218.63;;;-143.58;100.00
58070;BME280;43863;52.256;21.048;2022-10-16T12:48:21;64218.63;;;-143.58;100.00
58070;BME280;43863;52.256;21.048;2022-10-16T12:51:20;64218.63;;;-143.58;100.00
58070;BME280;43863;52.256;21.048;2022-10-16T12:57:40;64218.63;;;-143.58;100.00
58070;BME280;43863;52.256;21.048;2022-10-16T12:59:52;64218.63;;;-143.58;100.00
58070;BME280;43863;52.256;21.048;2022-10-16T13:27:59;64218.63;;;-143.58;100.00
58070;BME280;43863;52.256;21.048;2022-10-16T13:30:54;64218.63;;;-143.58;100.00
58070;BME280;43863;52.256;21.048;2022-10-16T13:36:06;64218.63;;;-143.58;100.00
58070;BME280;43863;52.256;21.048;2022-10-16T13:38:40;64218.63;;;-143.58;100.00
58070;BME280;43863;52.256;21.048;2022-10-16T13:41:17;64218.63;;;-143.58;100.00
58070;BME280;43863;52.256;21.048;2022-10-16T13:43:49;64218.63;;;-143.58;100.00
58070;BME280;43863;52.256;21.048;2022-10-16T13:46:22;64218.63;;;-143.58;100.00
58070;BME280;43863;52.256;21.048;2022-10-16T13:49:15;64218.63;;;-143.58;100.00
58070;BME280;43863;52.256;21.048;2022-10-16T13:51:59;64218.63;;;-143.58;100.00
58070;BME280;43863;52.256;21.048;2022-10-16T13:54:27;64218.63;;;-143.58;100.00
58070;BME280;43863;52.256;21.048;2022-10-16T13:57:04;64218.63;;;-143.58;100.00
58070;BME280;43863;52.256;21.048;2022-10-16T13:59:52;64218.63;;;-143.58;100.00
58070;BME280;43863;52.256;21.048;2022-10-16T14:04:53;64218.63;;;-143.58;100.00
58070;BME280;43863;52.256;21.048;2022-10-16T14:07:31;64218.63;;;-143.58;100.00
58070;BME280;43863;52.256;21.048;2022-10-16T14:10:17;64218.63;;;-143.58;100.00
58070;BME280;43863;52.256;21.048;2022-10-16T14:13:00;64218.63;;;-143.58;100.00
58070;BME280;43863;52.256;21.048;2022-10-16T14:15:36;64218.63;;;-143.58;100.00
58070;BME280;43863;52.256;21.048;2022-10-16T14:18:07;64218.63;;;-143.58;100.00
58070;BME280;43863;52.256;21.048;2022-10-16T14:20:45;64218.63;;;-143.58;100.00
58070;BME280;43863;52.256;21.048;2022-10-16T14:23:28;64218.63;;;-143.58;100.00
58070;BME280;43863;52.256;21.048;2022-10-16T14:26:13;64218.63;;;-143.58;100.00
58070;BME280;43863;52.256;21.048;2022-10-16T14:28:44;64218.63;;;-143.58;100.00
58070;BME280;43863;52.256;21.048;2022-10-16T14:31:26;64218.63;;;-143.58;100.00
58070;BME280;43863;52.256;21.048;2022-10-16T14:33:58;64218.63;;;-143.58;100.00
58070;BME280;43863;52.256;21.048;2022-10-16T14:36:29;64218.63;;;-143.58;100.00
58070;BME280;43863;52.256;21.048;2022-10-16T14:39:17;64218.63;;;-143.58;100.00
58070;BME280;43863;52.256;21.048;2022-10-16T14:41:56;64218.63;;;-143.58;100.00
58070;BME280;43863;52.256;21.048;2022-10-16T14:44:33;64218.63;;;-143.58;100.00
58070;BME280;43863;52.256;21.048;2022-10-16T14:47:12;64218.63;;;-143.58;100.00
58070;BME280;43863;52.256;21.048;2022-10-16T14:49:48;64218.63;;;-143.58;100.00
58070;BME280;43863;52.256;21.048;2022-10-16T14:52:17;64218.63;;;-143.58;100.00
58070;BME280;43863;52.256;21.048;2022-10-16T14:54:48;64218.63;;;-143.58;100.00
58070;BME280;43863;52.256;21.048;2022-10-16T14:57:23;64218.63;;;-143.58;100.00
58070;BME280;43863;52.256;21.048;2022-10-16T14:59:54;64218.63;;;-143.58;100.00
58070;BME280;43863;52.256;21.048;2022-10-16T15:02:30;64218.63;;;-143.58;100.00
58070;BME280;43863;52.256;21.048;2022-10-16T15:07:43;64218.63;;;-143.58;100.00